sensor_id;sensor_type;location;lat;lon;timestamp;P1;durP1;ratioP1;P2;durP2;ratioP2
52041;SDS011;38052;45.944;13.624;2022-12-18T00:01:22;6.43;;;3.65;;
52041;SDS011;38052;45.944;13.624;2022-12-18T00:03:49;6.10;;;3.33;;
52041;SDS011;38052;45.944;13.624;2022-12-18T00:06:16;5.72;;;3.55;;
52041;SDS011;38052;45.944;13.624;2022-12-18T00:08:43;5.47;;;3.65;;
52041;SDS011;38052;45.944;13.624;2022-12-18T00:11:16;6.70;;;4.18;;
52041;SDS011;38052;45.944;13.624;2022-12-18T00:13:44;12.10;;;6.07;;
52041;SDS011;38052;45.944;13.624;2022-12-18T00:16:11;13.00;;;6.78;;
52041;SDS011;38052;45.944;13.624;2022-12-18T00:18:37;14.85;;;9.20;;
52041;SDS011;38052;45.944;13.624;2022-12-18T00:21:04;11.88;;;7.38;;
52041;SDS011;38052;45.944;13.624;2022-12-18T00:23:31;9.40;;;5.95;;
52041;SDS011;38052;45.944;13.624;2022-12-18T00:26:01;12.75;;;6.75;;
52041;SDS011;38052;45.944;13.624;2022-12-18T00:28:27;9.85;;;6.43;;
52041;SDS011;38052;45.944;13.624;2022-12-18T00:31:01;9.10;;;5.68;;
52041;SDS011;38052;45.944;13.624;2022-12-18T00:33:27;9.32;;;5.88;;
52041;SDS011;38052;45.944;13.624;2022-12-18T00:35:54;8.05;;;5.90;;
52041;SDS011;38052;45.944;13.624;2022-12-18T00:38:20;10.05;;;5.35;;
52041;SDS011;38052;45.944;13.624;2022-12-18T00:40:48;8.00;;;5.40;;
52041;SDS011;38052;45.944;13.624;2022-12-18T00:43:15;9.70;;;5.85;;
52041;SDS011;38052;45.944;13.624;2022-12-18T00:45:41;8.10;;;4.60;;
52041;SDS011;38052;45.944;13.624;2022-12-18T00:48:07;6.18;;;4.20;;
52041;SDS011;38052;45.944;13.624;2022-12-18T00:50:34;6.32;;;3.83;;
52041;SDS011;38052;45.944;13.624;2022-12-18T00:53:00;8.80;;;3.90;;
52041;SDS011;38052;45.944;13.624;2022-12-18T00:55:27;6.40;;;3.33;;
52041;SDS011;38052;45.944;13.624;2022-12-18T00:57:53;6.95;;;3.83;;
52041;SDS011;38052;45.944;13.624;2022-12-18T01:00:20;6.78;;;4.20;;
52041;SDS011;38052;45.944;13.624;2022-12-18T01:02:46;6.43;;;3.20;;
52041;SDS011;38052;45.944;13.624;2022-12-18T01:05:12;6.32;;;3.65;;
52041;SDS011;38052;45.944;13.624;2022-12-18T01:07:39;9.65;;;4.70;;
52041;SDS011;38052;45.944;13.624;2022-12-18T01:10:05;9.30;;;6.28;;
52041;SDS011;38052;45.944;13.624;2022-12-18T01:12:32;11.13;;;7.15;;
52041;SDS011;38052;45.944;13.624;2022-12-18T01:14:59;7.68;;;5.10;;
52041;SDS011;38052;45.944;13.624;2022-12-18T01:17:26;8.45;;;5.30;;
52041;SDS011;38052;45.944;13.624;2022-12-18T01:19:52;10.80;;;5.57;;
52041;SDS011;38052;45.944;13.624;2022-12-18T01:22:18;7.72;;;4.93;;
52041;SDS011;38052;45.944;13.624;2022-12-18T01:24:44;6.50;;;4.32;;
52041;SDS011;38052;45.944;13.624;2022-12-18T01:27:10;7.00;;;4.28;;
52041;SDS011;38052;45.944;13.624;2022-12-18T01:29:37;7.93;;;4.75;;
52041;SDS011;38052;45.944;13.624;2022-12-18T01:32:03;8.85;;;4.38;;
52041;SDS011;38052;45.944;13.624;2022-12-18T01:34:30;9.23;;;5.05;;
52041;SDS011;38052;45.944;13.624;2022-12-18T01:36:56;7.97;;;5.32;;
52041;SDS011;38052;45.944;13.624;2022-12-18T01:39:23;8.95;;;5.25;;
52041;SDS011;38052;45.944;13.624;2022-12-18T01:41:49;7.90;;;4.93;;
52041;SDS011;38052;45.944;13.624;2022-12-18T01:47:55;8.88;;;5.22;;
52041;SDS011;38052;45.944;13.624;2022-12-18T01:52:34;11.63;;;6.82;;
52041;SDS011;38052;45.944;13.624;2022-12-18T01:55:03;9.00;;;6.07;;
52041;SDS011;38052;45.944;13.624;2022-12-18T01:57:30;11.60;;;5.85;;
52041;SDS011;38052;45.944;13.624;2022-12-18T01:59:57;8.20;;;5.90;;
52041;SDS011;38052;45.944;13.624;2022-12-18T02:02:26;8.30;;;5.03;;
52041;SDS011;38052;45.944;13.624;2022-12-18T02:04:52;8.05;;;4.63;;
52041;SDS011;38052;45.944;13.624;2022-12-18T02:12:34;7.57;;;4.72;;
52041;SDS011;38052;45.944;13.624;2022-12-18T02:15:07;8.70;;;5.78;;
52041;SDS011;38052;45.944;13.624;2022-12-18T02:17:50;7.95;;;4.20;;
52041;SDS011;38052;45.944;13.624;2022-12-18T02:20:35;7.63;;;5.22;;
52041;SDS011;38052;45.944;13.624;2022-12-18T02:25:40;7.93;;;4.72;;
52041;SDS011;38052;45.944;13.624;2022-12-18T02:28:12;7.82;;;4.03;;
52041;SDS011;38052;45.944;13.624;2022-12-18T02:30:39;7.55;;;4.35;;
52041;SDS011;38052;45.944;13.624;2022-12-18T02:33:07;6.75;;;4.97;;
52041;SDS011;38052;45.944;13.624;2022-12-18T02:35:34;6.57;;;4.00;;
52041;SDS011;38052;45.944;13.624;2022-12-18T02:38:03;6.03;;;4.57;;
52041;SDS011;38052;45.944;13.624;2022-12-18T02:40:29;8.48;;;5.00;;
52041;SDS011;38052;45.944;13.624;2022-12-18T02:43:02;6.65;;;4.65;;
52041;SDS011;38052;45.944;13.624;2022-12-18T02:45:28;8.10;;;4.63;;
52041;SDS011;38052;45.944;13.624;2022-12-18T02:47:55;8.60;;;4.97;;
52041;SDS011;38052;45.944;13.624;2022-12-18T02:57:58;8.45;;;4.93;;
52041;SDS011;38052;45.944;13.624;2022-12-18T03:03:05;7.70;;;5.22;;
52041;SDS011;38052;45.944;13.624;2022-12-18T03:08:01;8.55;;;5.18;;
52041;SDS011;38052;45.944;13.624;2022-12-18T03:10:29;7.25;;;4.70;;
52041;SDS011;38052;45.944;13.624;2022-12-18T03:15:30;7.00;;;4.82;;
52041;SDS011;38052;45.944;13.624;2022-12-18T03:18:19;7.72;;;5.40;;
52041;SDS011;38052;45.944;13.624;2022-12-18T03:20:44;8.40;;;5.53;;
52041;SDS011;38052;45.944;13.624;2022-12-18T03:23:13;10.02;;;6.30;;
52041;SDS011;38052;45.944;13.624;2022-12-18T03:25:42;8.93;;;5.35;;
52041;SDS011;38052;45.944;13.624;2022-12-18T03:28:12;9.43;;;5.22;;
52041;SDS011;38052;45.944;13.624;2022-12-18T03:30:39;6.50;;;4.43;;
52041;SDS011;38052;45.944;13.624;2022-12-18T03:33:10;8.93;;;6.05;;
52041;SDS011;38052;45.944;13.624;2022-12-18T03:35:39;9.27;;;5.30;;
52041;SDS011;38052;45.944;13.624;2022-12-18T03:38:06;7.28;;;5.43;;
52041;SDS011;38052;45.944;13.624;2022-12-18T03:41:16;7.50;;;5.50;;
52041;SDS011;38052;45.944;13.624;2022-12-18T03:43:29;8.18;;;4.82;;
52041;SDS011;38052;45.944;13.624;2022-12-18T03:46:02;8.80;;;5.18;;
52041;SDS011;38052;45.944;13.624;2022-12-18T03:48:31;14.15;;;9.02;;
52041;SDS011;38052;45.944;13.624;2022-12-18T03:51:07;10.02;;;6.40;;
52041;SDS011;38052;45.944;13.624;2022-12-18T03:54:08;9.77;;;5.75;;
52041;SDS011;38052;45.944;13.624;2022-12-18T03:56:31;6.45;;;4.60;;
52041;SDS011;38052;45.944;13.624;2022-12-18T03:58:59;8.77;;;5.20;;
52041;SDS011;38052;45.944;13.624;2022-12-18T04:01:28;7.30;;;4.88;;
52041;SDS011;38052;45.944;13.624;2022-12-18T04:03:56;10.50;;;5.80;;
52041;SDS011;38052;45.944;13.624;2022-12-18T04:06:23;7.13;;;4.60;;
52041;SDS011;38052;45.944;13.624;2022-12-18T04:08:49;7.18;;;5.00;;
52041;SDS011;38052;45.944;13.624;2022-12-18T04:11:16;9.20;;;4.90;;
52041;SDS011;38052;45.944;13.624;2022-12-18T04:13:42;7.32;;;4.78;;
52041;SDS011;38052;45.944;13.624;2022-12-18T04:16:09;9.07;;;5.30;;
52041;SDS011;38052;45.944;13.624;2022-12-18T04:18:35;11.25;;;6.03;;
52041;SDS011;38052;45.944;13.624;2022-12-18T04:21:02;7.60;;;4.80;;
52041;SDS011;38052;45.944;13.624;2022-12-18T04:23:29;9.23;;;5.15;;
52041;SDS011;38052;45.944;13.624;2022-12-18T04:25:56;8.38;;;5.75;;
52041;SDS011;38052;45.944;13.624;2022-12-18T04:28:22;7.78;;;4.90;;
52041;SDS011;38052;45.944;13.624;2022-12-18T04:30:49;9.73;;;6.47;;
52041;SDS011;38052;45.944;13.624;2022-12-18T04:33:15;7.97;;;5.80;;
52041;SDS011;38052;45.944;13.624;2022-12-18T04:35:42;7.88;;;5.57;;
52041;SDS011;38052;45.944;13.624;2022-12-18T04:38:08;9.07;;;5.63;;
52041;SDS011;38052;45.944;13.624;2022-12-18T04:40:35;8.70;;;4.95;;
52041;SDS011;38052;45.944;13.624;2022-12-18T04:43:02;8.45;;;5.80;;
52041;SDS011;38052;45.944;13.624;2022-12-18T04:45:29;10.95;;;6.47;;
52041;SDS011;38052;45.944;13.624;2022-12-18T04:47:57;8.55;;;5.38;;
52041;SDS011;38052;45.944;13.624;2022-12-18T04:50:23;10.07;;;6.80;;
52041;SDS011;38052;45.944;13.624;2022-12-18T04:52:49;7.47;;;5.28;;
52041;SDS011;38052;45.944;13.624;2022-12-18T04:55:15;7.93;;;5.28;;
52041;SDS011;38052;45.944;13.624;2022-12-18T04:57:42;9.45;;;5.45;;
52041;SDS011;38052;45.944;13.624;2022-12-18T05:00:09;10.82;;;6.63;;
52041;SDS011;38052;45.944;13.624;2022-12-18T05:02:36;7.95;;;5.65;;
52041;SDS011;38052;45.944;13.624;2022-12-18T05:05:02;10.02;;;5.93;;
52041;SDS011;38052;45.944;13.624;2022-12-18T05:07:28;8.60;;;5.40;;
52041;SDS011;38052;45.944;13.624;2022-12-18T05:09:55;10.05;;;6.05;;
52041;SDS011;38052;45.944;13.624;2022-12-18T05:12:22;8.63;;;5.45;;
52041;SDS011;38052;45.944;13.624;2022-12-18T05:14:49;8.02;;;5.13;;
52041;SDS011;38052;45.944;13.624;2022-12-18T05:17:15;10.65;;;5.60;;
52041;SDS011;38052;45.944;13.624;2022-12-18T05:19:41;9.05;;;5.90;;
52041;SDS011;38052;45.944;13.624;2022-12-18T05:22:08;9.00;;;6.78;;
52041;SDS011;38052;45.944;13.624;2022-12-18T05:24:34;9.25;;;6.07;;
52041;SDS011;38052;45.944;13.624;2022-12-18T05:27:02;8.98;;;5.82;;
52041;SDS011;38052;45.944;13.624;2022-12-18T05:29:29;8.52;;;6.30;;
52041;SDS011;38052;45.944;13.624;2022-12-18T05:31:55;9.30;;;6.90;;
52041;SDS011;38052;45.944;13.624;2022-12-18T05:34:22;10.50;;;5.78;;
52041;SDS011;38052;45.944;13.624;2022-12-18T05:36:48;8.80;;;5.53;;
52041;SDS011;38052;45.944;13.624;2022-12-18T05:39:15;10.05;;;5.78;;
52041;SDS011;38052;45.944;13.624;2022-12-18T05:41:41;8.45;;;5.78;;
52041;SDS011;38052;45.944;13.624;2022-12-18T05:44:08;9.77;;;5.97;;
52041;SDS011;38052;45.944;13.624;2022-12-18T05:46:35;8.18;;;5.85;;
52041;SDS011;38052;45.944;13.624;2022-12-18T05:49:01;8.93;;;6.00;;
52041;SDS011;38052;45.944;13.624;2022-12-18T05:51:28;10.32;;;7.25;;
52041;SDS011;38052;45.944;13.624;2022-12-18T05:53:54;10.13;;;6.15;;
52041;SDS011;38052;45.944;13.624;2022-12-18T05:56:21;10.70;;;6.43;;
52041;SDS011;38052;45.944;13.624;2022-12-18T05:58:50;10.82;;;6.85;;
52041;SDS011;38052;45.944;13.624;2022-12-18T06:01:18;7.95;;;6.13;;
52041;SDS011;38052;45.944;13.624;2022-12-18T06:03:44;10.23;;;6.78;;
52041;SDS011;38052;45.944;13.624;2022-12-18T06:08:40;10.60;;;6.60;;
52041;SDS011;38052;45.944;13.624;2022-12-18T06:11:06;9.35;;;6.15;;
52041;SDS011;38052;45.944;13.624;2022-12-18T06:13:33;12.35;;;7.22;;
52041;SDS011;38052;45.944;13.624;2022-12-18T06:16:01;9.77;;;6.97;;
52041;SDS011;38052;45.944;13.624;2022-12-18T06:18:27;9.50;;;6.75;;
52041;SDS011;38052;45.944;13.624;2022-12-18T06:20:57;9.82;;;6.80;;
52041;SDS011;38052;45.944;13.624;2022-12-18T06:23:24;11.55;;;7.30;;
52041;SDS011;38052;45.944;13.624;2022-12-18T06:25:51;10.07;;;6.93;;
52041;SDS011;38052;45.944;13.624;2022-12-18T06:28:18;14.05;;;8.30;;
52041;SDS011;38052;45.944;13.624;2022-12-18T06:30:45;11.88;;;7.18;;
52041;SDS011;38052;45.944;13.624;2022-12-18T06:33:12;9.93;;;6.78;;
52041;SDS011;38052;45.944;13.624;2022-12-18T06:35:38;9.10;;;6.40;;
52041;SDS011;38052;45.944;13.624;2022-12-18T06:38:05;9.48;;;6.35;;
52041;SDS011;38052;45.944;13.624;2022-12-18T06:40:31;10.18;;;6.70;;
52041;SDS011;38052;45.944;13.624;2022-12-18T06:42:58;13.90;;;7.95;;
52041;SDS011;38052;45.944;13.624;2022-12-18T06:45:24;11.52;;;7.80;;
52041;SDS011;38052;45.944;13.624;2022-12-18T06:47:50;12.32;;;7.50;;
52041;SDS011;38052;45.944;13.624;2022-12-18T06:50:17;13.43;;;7.60;;
52041;SDS011;38052;45.944;13.624;2022-12-18T06:52:44;29.90;;;16.00;;
52041;SDS011;38052;45.944;13.624;2022-12-18T06:55:10;28.27;;;16.92;;
52041;SDS011;38052;45.944;13.624;2022-12-18T06:57:37;20.73;;;12.98;;
52041;SDS011;38052;45.944;13.624;2022-12-18T07:00:04;17.65;;;11.38;;
52041;SDS011;38052;45.944;13.624;2022-12-18T07:02:31;19.95;;;12.60;;
52041;SDS011;38052;45.944;13.624;2022-12-18T07:04:58;20.45;;;12.77;;
52041;SDS011;38052;45.944;13.624;2022-12-18T07:07:24;20.15;;;11.73;;
52041;SDS011;38052;45.944;13.624;2022-12-18T07:09:50;18.88;;;10.18;;
52041;SDS011;38052;45.944;13.624;2022-12-18T07:12:17;17.58;;;11.63;;
52041;SDS011;38052;45.944;13.624;2022-12-18T07:14:44;16.25;;;11.25;;
52041;SDS011;38052;45.944;13.624;2022-12-18T07:17:10;17.63;;;12.13;;
52041;SDS011;38052;45.944;13.624;2022-12-18T07:19:37;19.85;;;11.73;;
52041;SDS011;38052;45.944;13.624;2022-12-18T07:22:03;19.83;;;11.73;;
52041;SDS011;38052;45.944;13.624;2022-12-18T07:24:30;21.00;;;13.23;;
52041;SDS011;38052;45.944;13.624;2022-12-18T07:26:58;22.45;;;14.15;;
52041;SDS011;38052;45.944;13.624;2022-12-18T07:29:24;20.95;;;13.95;;
52041;SDS011;38052;45.944;13.624;2022-12-18T07:31:51;19.95;;;13.77;;
52041;SDS011;38052;45.944;13.624;2022-12-18T07:34:18;21.60;;;14.10;;
52041;SDS011;38052;45.944;13.624;2022-12-18T07:36:45;19.85;;;13.10;;
52041;SDS011;38052;45.944;13.624;2022-12-18T07:39:12;21.90;;;13.90;;
52041;SDS011;38052;45.944;13.624;2022-12-18T07:41:38;20.92;;;14.00;;
52041;SDS011;38052;45.944;13.624;2022-12-18T07:44:09;22.58;;;13.43;;
52041;SDS011;38052;45.944;13.624;2022-12-18T07:46:35;18.13;;;10.80;;
52041;SDS011;38052;45.944;13.624;2022-12-18T07:49:01;18.38;;;11.55;;
52041;SDS011;38052;45.944;13.624;2022-12-18T07:51:27;22.48;;;11.25;;
52041;SDS011;38052;45.944;13.624;2022-12-18T07:53:53;21.35;;;10.80;;
52041;SDS011;38052;45.944;13.624;2022-12-18T07:56:20;25.98;;;10.00;;
52041;SDS011;38052;45.944;13.624;2022-12-18T07:58:46;22.63;;;12.57;;
52041;SDS011;38052;45.944;13.624;2022-12-18T08:01:13;18.05;;;12.05;;
52041;SDS011;38052;45.944;13.624;2022-12-18T08:03:40;23.13;;;10.55;;
52041;SDS011;38052;45.944;13.624;2022-12-18T08:06:07;27.80;;;12.40;;
52041;SDS011;38052;45.944;13.624;2022-12-18T08:08:33;27.33;;;13.45;;
52041;SDS011;38052;45.944;13.624;2022-12-18T08:11:00;22.35;;;13.65;;
52041;SDS011;38052;45.944;13.624;2022-12-18T08:13:27;19.75;;;12.00;;
52041;SDS011;38052;45.944;13.624;2022-12-18T08:16:00;17.90;;;11.10;;
52041;SDS011;38052;45.944;13.624;2022-12-18T08:18:27;28.13;;;12.68;;
52041;SDS011;38052;45.944;13.624;2022-12-18T08:20:54;19.98;;;13.40;;
52041;SDS011;38052;45.944;13.624;2022-12-18T08:23:20;20.08;;;11.93;;
52041;SDS011;38052;45.944;13.624;2022-12-18T08:25:47;16.35;;;10.73;;
52041;SDS011;38052;45.944;13.624;2022-12-18T08:28:14;15.43;;;10.70;;
52041;SDS011;38052;45.944;13.624;2022-12-18T08:30:40;15.48;;;11.70;;
52041;SDS011;38052;45.944;13.624;2022-12-18T08:33:07;14.82;;;9.82;;
52041;SDS011;38052;45.944;13.624;2022-12-18T08:35:36;15.73;;;9.77;;
52041;SDS011;38052;45.944;13.624;2022-12-18T08:38:03;14.50;;;10.25;;
52041;SDS011;38052;45.944;13.624;2022-12-18T08:40:29;14.80;;;9.48;;
52041;SDS011;38052;45.944;13.624;2022-12-18T08:42:56;12.13;;;8.93;;
52041;SDS011;38052;45.944;13.624;2022-12-18T08:45:40;13.85;;;8.60;;
52041;SDS011;38052;45.944;13.624;2022-12-18T08:48:06;14.80;;;9.05;;
52041;SDS011;38052;45.944;13.624;2022-12-18T08:50:33;17.52;;;9.82;;
52041;SDS011;38052;45.944;13.624;2022-12-18T08:53:00;14.48;;;9.15;;
52041;SDS011;38052;45.944;13.624;2022-12-18T08:55:27;14.68;;;8.68;;
52041;SDS011;38052;45.944;13.624;2022-12-18T08:57:53;12.90;;;8.73;;
52041;SDS011;38052;45.944;13.624;2022-12-18T09:00:20;13.80;;;9.77;;
52041;SDS011;38052;45.944;13.624;2022-12-18T09:02:46;12.95;;;8.38;;
52041;SDS011;38052;45.944;13.624;2022-12-18T09:05:13;14.10;;;8.43;;
52041;SDS011;38052;45.944;13.624;2022-12-18T09:07:40;13.15;;;8.45;;
52041;SDS011;38052;45.944;13.624;2022-12-18T09:10:07;15.35;;;10.77;;
52041;SDS011;38052;45.944;13.624;2022-12-18T09:12:34;15.70;;;9.05;;
52041;SDS011;38052;45.944;13.624;2022-12-18T09:15:00;13.68;;;10.25;;
52041;SDS011;38052;45.944;13.624;2022-12-18T09:17:27;13.45;;;9.32;;
52041;SDS011;38052;45.944;13.624;2022-12-18T09:19:54;13.75;;;8.93;;
52041;SDS011;38052;45.944;13.624;2022-12-18T09:22:20;13.85;;;9.20;;
52041;SDS011;38052;45.944;13.624;2022-12-18T09:24:48;11.88;;;8.20;;
52041;SDS011;38052;45.944;13.624;2022-12-18T09:27:14;12.32;;;8.48;;
52041;SDS011;38052;45.944;13.624;2022-12-18T09:29:41;12.82;;;8.30;;
52041;SDS011;38052;45.944;13.624;2022-12-18T09:32:08;13.38;;;8.38;;
52041;SDS011;38052;45.944;13.624;2022-12-18T09:34:34;11.05;;;7.65;;
52041;SDS011;38052;45.944;13.624;2022-12-18T09:37:01;11.57;;;7.82;;
52041;SDS011;38052;45.944;13.624;2022-12-18T09:39:27;10.93;;;7.85;;
52041;SDS011;38052;45.944;13.624;2022-12-18T09:41:54;11.68;;;7.65;;
52041;SDS011;38052;45.944;13.624;2022-12-18T09:44:32;13.05;;;8.65;;
52041;SDS011;38052;45.944;13.624;2022-12-18T09:49:37;13.07;;;8.38;;
52041;SDS011;38052;45.944;13.624;2022-12-18T09:52:08;12.48;;;7.95;;
52041;SDS011;38052;45.944;13.624;2022-12-18T09:54:37;13.68;;;8.55;;
52041;SDS011;38052;45.944;13.624;2022-12-18T09:57:04;12.05;;;7.80;;
52041;SDS011;38052;45.944;13.624;2022-12-18T09:59:35;12.63;;;7.95;;
52041;SDS011;38052;45.944;13.624;2022-12-18T10:02:17;12.30;;;8.30;;
52041;SDS011;38052;45.944;13.624;2022-12-18T10:04:48;12.57;;;7.53;;
52041;SDS011;38052;45.944;13.624;2022-12-18T10:07:21;11.40;;;8.60;;
52041;SDS011;38052;45.944;13.624;2022-12-18T10:12:18;11.90;;;7.78;;
52041;SDS011;38052;45.944;13.624;2022-12-18T10:22:29;13.57;;;8.23;;
52041;SDS011;38052;45.944;13.624;2022-12-18T10:25:01;10.30;;;7.78;;
52041;SDS011;38052;45.944;13.624;2022-12-18T10:27:29;12.27;;;7.85;;
52041;SDS011;38052;45.944;13.624;2022-12-18T10:29:56;9.52;;;6.30;;
52041;SDS011;38052;45.944;13.624;2022-12-18T10:32:27;11.40;;;7.47;;
52041;SDS011;38052;45.944;13.624;2022-12-18T10:34:55;10.55;;;8.00;;
52041;SDS011;38052;45.944;13.624;2022-12-18T10:37:23;9.82;;;7.03;;
52041;SDS011;38052;45.944;13.624;2022-12-18T10:40:23;10.68;;;7.13;;
52041;SDS011;38052;45.944;13.624;2022-12-18T10:42:43;10.52;;;7.00;;
52041;SDS011;38052;45.944;13.624;2022-12-18T10:45:16;9.00;;;6.45;;
52041;SDS011;38052;45.944;13.624;2022-12-18T10:47:48;9.32;;;6.38;;
52041;SDS011;38052;45.944;13.624;2022-12-18T10:50:31;12.00;;;6.72;;
52041;SDS011;38052;45.944;13.624;2022-12-18T10:52:59;13.95;;;8.82;;
52041;SDS011;38052;45.944;13.624;2022-12-18T10:55:31;12.38;;;7.55;;
52041;SDS011;38052;45.944;13.624;2022-12-18T10:58:20;12.55;;;7.20;;
52041;SDS011;38052;45.944;13.624;2022-12-18T11:03:44;9.13;;;5.97;;
52041;SDS011;38052;45.944;13.624;2022-12-18T11:08:36;11.15;;;6.88;;
52041;SDS011;38052;45.944;13.624;2022-12-18T11:11:04;10.27;;;7.38;;
52041;SDS011;38052;45.944;13.624;2022-12-18T11:13:33;8.88;;;6.13;;
52041;SDS011;38052;45.944;13.624;2022-12-18T11:15:59;9.82;;;5.72;;
52041;SDS011;38052;45.944;13.624;2022-12-18T11:18:30;9.23;;;5.60;;
52041;SDS011;38052;45.944;13.624;2022-12-18T11:21:08;12.07;;;6.88;;
52041;SDS011;38052;45.944;13.624;2022-12-18T11:23:35;9.02;;;6.10;;
52041;SDS011;38052;45.944;13.624;2022-12-18T11:26:03;9.55;;;6.53;;
52041;SDS011;38052;45.944;13.624;2022-12-18T11:28:36;8.02;;;6.03;;
52041;SDS011;38052;45.944;13.624;2022-12-18T11:31:20;8.52;;;6.75;;
52041;SDS011;38052;45.944;13.624;2022-12-18T11:33:49;13.98;;;7.75;;
52041;SDS011;38052;45.944;13.624;2022-12-18T11:36:16;12.10;;;8.38;;
52041;SDS011;38052;45.944;13.624;2022-12-18T11:38:43;13.52;;;7.18;;
52041;SDS011;38052;45.944;13.624;2022-12-18T11:41:20;12.40;;;7.68;;
52041;SDS011;38052;45.944;13.624;2022-12-18T11:43:50;11.77;;;8.13;;
52041;SDS011;38052;45.944;13.624;2022-12-18T11:46:23;10.13;;;7.13;;
52041;SDS011;38052;45.944;13.624;2022-12-18T11:49:24;11.25;;;7.20;;
52041;SDS011;38052;45.944;13.624;2022-12-18T11:51:46;10.20;;;7.28;;
52041;SDS011;38052;45.944;13.624;2022-12-18T11:54:14;10.10;;;6.55;;
52041;SDS011;38052;45.944;13.624;2022-12-18T11:56:49;9.82;;;6.75;;
52041;SDS011;38052;45.944;13.624;2022-12-18T12:20:15;11.57;;;7.28;;
52041;SDS011;38052;45.944;13.624;2022-12-18T12:25:21;11.20;;;6.90;;
52041;SDS011;38052;45.944;13.624;2022-12-18T12:30:20;11.73;;;7.38;;
52041;SDS011;38052;45.944;13.624;2022-12-18T12:35:42;10.90;;;7.18;;
52041;SDS011;38052;45.944;13.624;2022-12-18T12:38:14;10.18;;;7.35;;
52041;SDS011;38052;45.944;13.624;2022-12-18T12:40:44;12.95;;;8.52;;
52041;SDS011;38052;45.944;13.624;2022-12-18T12:43:20;9.25;;;7.22;;
52041;SDS011;38052;45.944;13.624;2022-12-18T12:48:18;10.13;;;7.20;;
52041;SDS011;38052;45.944;13.624;2022-12-18T12:50:47;10.75;;;6.78;;
52041;SDS011;38052;45.944;13.624;2022-12-18T12:53:20;12.15;;;7.18;;
52041;SDS011;38052;45.944;13.624;2022-12-18T12:55:47;12.52;;;7.35;;
52041;SDS011;38052;45.944;13.624;2022-12-18T12:58:19;10.70;;;7.68;;
52041;SDS011;38052;45.944;13.624;2022-12-18T13:01:01;12.18;;;7.47;;
52041;SDS011;38052;45.944;13.624;2022-12-18T13:06:04;12.95;;;8.55;;
52041;SDS011;38052;45.944;13.624;2022-12-18T13:08:51;10.73;;;7.63;;
52041;SDS011;38052;45.944;13.624;2022-12-18T13:11:31;10.35;;;7.07;;
52041;SDS011;38052;45.944;13.624;2022-12-18T13:14:33;16.17;;;7.65;;
52041;SDS011;38052;45.944;13.624;2022-12-18T13:19:41;12.88;;;7.90;;
52041;SDS011;38052;45.944;13.624;2022-12-18T13:22:21;9.85;;;7.03;;
52041;SDS011;38052;45.944;13.624;2022-12-18T13:24:48;11.73;;;7.32;;
52041;SDS011;38052;45.944;13.624;2022-12-18T13:29:59;10.60;;;7.30;;
52041;SDS011;38052;45.944;13.624;2022-12-18T13:32:26;8.77;;;5.95;;
52041;SDS011;38052;45.944;13.624;2022-12-18T13:40:20;9.93;;;6.93;;
52041;SDS011;38052;45.944;13.624;2022-12-18T13:42:50;10.43;;;7.05;;
52041;SDS011;38052;45.944;13.624;2022-12-18T13:45:42;9.85;;;6.75;;
52041;SDS011;38052;45.944;13.624;2022-12-18T13:48:19;10.07;;;7.25;;
52041;SDS011;38052;45.944;13.624;2022-12-18T13:51:08;11.48;;;6.97;;
52041;SDS011;38052;45.944;13.624;2022-12-18T13:53:42;13.82;;;8.18;;
52041;SDS011;38052;45.944;13.624;2022-12-18T13:56:09;12.48;;;7.43;;
52041;SDS011;38052;45.944;13.624;2022-12-18T13:58:41;11.55;;;6.80;;
52041;SDS011;38052;45.944;13.624;2022-12-18T14:01:20;11.85;;;7.43;;
52041;SDS011;38052;45.944;13.624;2022-12-18T14:03:48;10.65;;;7.05;;
52041;SDS011;38052;45.944;13.624;2022-12-18T14:06:14;13.27;;;7.78;;
52041;SDS011;38052;45.944;13.624;2022-12-18T14:08:43;9.75;;;6.38;;
52041;SDS011;38052;45.944;13.624;2022-12-18T14:11:18;9.95;;;7.18;;
52041;SDS011;38052;45.944;13.624;2022-12-18T14:13:45;11.35;;;6.93;;
52041;SDS011;38052;45.944;13.624;2022-12-18T14:16:13;11.43;;;6.97;;
52041;SDS011;38052;45.944;13.624;2022-12-18T14:18:44;10.43;;;6.82;;
52041;SDS011;38052;45.944;13.624;2022-12-18T14:21:25;11.73;;;7.65;;
52041;SDS011;38052;45.944;13.624;2022-12-18T14:26:30;11.50;;;7.93;;
52041;SDS011;38052;45.944;13.624;2022-12-18T14:28:59;11.77;;;7.88;;
52041;SDS011;38052;45.944;13.624;2022-12-18T14:31:30;13.55;;;8.18;;
52041;SDS011;38052;45.944;13.624;2022-12-18T14:33:56;12.07;;;7.25;;
52041;SDS011;38052;45.944;13.624;2022-12-18T14:36:24;13.63;;;8.93;;
52041;SDS011;38052;45.944;13.624;2022-12-18T14:38:51;11.07;;;7.72;;
52041;SDS011;38052;45.944;13.624;2022-12-18T14:41:19;12.57;;;8.38;;
52041;SDS011;38052;45.944;13.624;2022-12-18T14:43:49;12.90;;;8.65;;
52041;SDS011;38052;45.944;13.624;2022-12-18T14:46:29;13.18;;;8.52;;
52041;SDS011;38052;45.944;13.624;2022-12-18T14:48:58;11.65;;;7.45;;
52041;SDS011;38052;45.944;13.624;2022-12-18T14:51:26;10.55;;;7.57;;
52041;SDS011;38052;45.944;13.624;2022-12-18T14:54:00;13.27;;;8.15;;
52041;SDS011;38052;45.944;13.624;2022-12-18T14:56:30;9.77;;;7.05;;
52041;SDS011;38052;45.944;13.624;2022-12-18T15:01:27;12.73;;;8.50;;
52041;SDS011;38052;45.944;13.624;2022-12-18T15:03:54;12.52;;;8.73;;
52041;SDS011;38052;45.944;13.624;2022-12-18T15:06:26;13.07;;;8.43;;
52041;SDS011;38052;45.944;13.624;2022-12-18T15:08:52;12.38;;;8.18;;
52041;SDS011;38052;45.944;13.624;2022-12-18T15:12:04;12.05;;;7.55;;
52041;SDS011;38052;45.944;13.624;2022-12-18T15:14:21;11.30;;;7.78;;
52041;SDS011;38052;45.944;13.624;2022-12-18T15:16:54;11.73;;;7.72;;
52041;SDS011;38052;45.944;13.624;2022-12-18T15:19:21;12.73;;;7.75;;
52041;SDS011;38052;45.944;13.624;2022-12-18T15:21:48;12.70;;;7.63;;
52041;SDS011;38052;45.944;13.624;2022-12-18T15:24:18;11.18;;;8.35;;
52041;SDS011;38052;45.944;13.624;2022-12-18T15:26:45;11.90;;;7.90;;
52041;SDS011;38052;45.944;13.624;2022-12-18T15:29:20;13.88;;;8.52;;
52041;SDS011;38052;45.944;13.624;2022-12-18T15:32:10;11.45;;;7.35;;
52041;SDS011;38052;45.944;13.624;2022-12-18T15:34:33;13.63;;;8.73;;
52041;SDS011;38052;45.944;13.624;2022-12-18T15:37:00;14.05;;;8.02;;
52041;SDS011;38052;45.944;13.624;2022-12-18T15:39:26;14.55;;;9.32;;
52041;SDS011;38052;45.944;13.624;2022-12-18T15:41:52;14.35;;;8.13;;
52041;SDS011;38052;45.944;13.624;2022-12-18T15:44:37;14.32;;;9.13;;
52041;SDS011;38052;45.944;13.624;2022-12-18T15:47:04;12.77;;;8.38;;
52041;SDS011;38052;45.944;13.624;2022-12-18T15:49:33;13.33;;;8.77;;
52041;SDS011;38052;45.944;13.624;2022-12-18T15:52:01;11.52;;;8.57;;
52041;SDS011;38052;45.944;13.624;2022-12-18T15:54:27;14.00;;;9.07;;
52041;SDS011;38052;45.944;13.624;2022-12-18T15:57:12;16.30;;;9.88;;
52041;SDS011;38052;45.944;13.624;2022-12-18T15:59:48;14.00;;;9.32;;
52041;SDS011;38052;45.944;13.624;2022-12-18T16:02:16;13.45;;;8.88;;
52041;SDS011;38052;45.944;13.624;2022-12-18T16:04:42;15.52;;;10.68;;
52041;SDS011;38052;45.944;13.624;2022-12-18T16:07:09;15.43;;;10.20;;
52041;SDS011;38052;45.944;13.624;2022-12-18T16:09:36;15.68;;;10.98;;
52041;SDS011;38052;45.944;13.624;2022-12-18T16:12:02;19.45;;;12.25;;
52041;SDS011;38052;45.944;13.624;2022-12-18T16:14:29;23.73;;;13.40;;